Terminal Aerodrome Forecast
Issued by NWS Mt. Holly, NJ

Home | Current Version | Previous Version | Text Only | Print | Product List | Glossary On
Versions: 1 2 3 4 5 6 7 8 9 10 11 12 13 14 15 16 17 18 19 20 21 22 23 24 25 26 27 28 29 30 31 32 33 34 35
000
FTUS41 KPHI 231900 AAA
TAFPHL
TAF AMD
KPHL 231905Z 2319/2424 09010KT P6SM VCSH SCT025 OVC040
      TEMPO 2319/2321 4SM -SHRA BKN020 OVC035
     FM232300 08007KT P6SM SCT050 BKN120
     FM240500 02005KT P6SM SCT050 SCT120
     FM241200 06005KT P6SM SCT035=

USA.gov is the U.S. government's official web portal to all federal, state and local government web resources and services.